sensor_id;sensor_type;location;lat;lon;timestamp;P1;durP1;ratioP1;P2;durP2;ratioP2
32639;SDS011;19049;52.524;11.468;2023-04-03T00:00:49;2.83;;;0.70;;
32639;SDS011;19049;52.524;11.468;2023-04-03T00:03:16;2.27;;;1.00;;
32639;SDS011;19049;52.524;11.468;2023-04-03T00:05:43;2.23;;;0.47;;
32639;SDS011;19049;52.524;11.468;2023-04-03T00:08:09;2.17;;;0.70;;
32639;SDS011;19049;52.524;11.468;2023-04-03T00:10:35;0.60;;;0.40;;
32639;SDS011;19049;52.524;11.468;2023-04-03T00:13:02;1.73;;;0.53;;
32639;SDS011;19049;52.524;11.468;2023-04-03T00:15:29;2.13;;;0.50;;
32639;SDS011;19049;52.524;11.468;2023-04-03T00:17:55;1.33;;;0.50;;
32639;SDS011;19049;52.524;11.468;2023-04-03T00:20:21;1.53;;;0.60;;
32639;SDS011;19049;52.524;11.468;2023-04-03T00:22:47;0.93;;;0.50;;
32639;SDS011;19049;52.524;11.468;2023-04-03T00:25:13;1.27;;;0.70;;
32639;SDS011;19049;52.524;11.468;2023-04-03T00:27:39;0.87;;;0.30;;
32639;SDS011;19049;52.524;11.468;2023-04-03T00:30:06;1.30;;;0.60;;
32639;SDS011;19049;52.524;11.468;2023-04-03T00:32:33;2.40;;;0.70;;
32639;SDS011;19049;52.524;11.468;2023-04-03T00:34:59;2.33;;;0.97;;
32639;SDS011;19049;52.524;11.468;2023-04-03T00:37:25;1.30;;;0.67;;
32639;SDS011;19049;52.524;11.468;2023-04-03T00:39:50;1.57;;;0.70;;
32639;SDS011;19049;52.524;11.468;2023-04-03T00:42:16;3.30;;;0.57;;
32639;SDS011;19049;52.524;11.468;2023-04-03T00:47:11;1.43;;;0.40;;
32639;SDS011;19049;52.524;11.468;2023-04-03T00:49:40;1.60;;;0.50;;
32639;SDS011;19049;52.524;11.468;2023-04-03T00:52:08;0.23;;;0.23;;
32639;SDS011;19049;52.524;11.468;2023-04-03T00:54:37;1.73;;;0.63;;
32639;SDS011;19049;52.524;11.468;2023-04-03T00:57:05;0.70;;;0.40;;
32639;SDS011;19049;52.524;11.468;2023-04-03T00:59:33;3.53;;;0.60;;
32639;SDS011;19049;52.524;11.468;2023-04-03T01:02:02;2.03;;;1.37;;
32639;SDS011;19049;52.524;11.468;2023-04-03T01:04:32;0.90;;;0.40;;
32639;SDS011;19049;52.524;11.468;2023-04-03T01:06:59;2.33;;;0.40;;
32639;SDS011;19049;52.524;11.468;2023-04-03T01:09:29;3.50;;;0.63;;
32639;SDS011;19049;52.524;11.468;2023-04-03T01:12:12;0.67;;;0.40;;
32639;SDS011;19049;52.524;11.468;2023-04-03T01:14:45;1.23;;;0.53;;
32639;SDS011;19049;52.524;11.468;2023-04-03T01:22:44;0.50;;;0.40;;
32639;SDS011;19049;52.524;11.468;2023-04-03T01:25:30;1.80;;;0.60;;
32639;SDS011;19049;52.524;11.468;2023-04-03T01:27:57;3.70;;;0.40;;
32639;SDS011;19049;52.524;11.468;2023-04-03T01:30:24;1.17;;;0.40;;
32639;SDS011;19049;52.524;11.468;2023-04-03T01:32:56;1.57;;;0.50;;
32639;SDS011;19049;52.524;11.468;2023-04-03T01:35:22;0.67;;;0.40;;
32639;SDS011;19049;52.524;11.468;2023-04-03T01:37:48;1.80;;;0.63;;
32639;SDS011;19049;52.524;11.468;2023-04-03T01:40:14;1.60;;;1.07;;
32639;SDS011;19049;52.524;11.468;2023-04-03T01:42:39;1.47;;;0.40;;
32639;SDS011;19049;52.524;11.468;2023-04-03T01:45:05;0.97;;;0.50;;
32639;SDS011;19049;52.524;11.468;2023-04-03T01:47:31;0.80;;;0.50;;
32639;SDS011;19049;52.524;11.468;2023-04-03T01:49:57;0.90;;;0.80;;
32639;SDS011;19049;52.524;11.468;2023-04-03T01:52:23;1.00;;;0.27;;
32639;SDS011;19049;52.524;11.468;2023-04-03T01:54:49;1.43;;;0.33;;
32639;SDS011;19049;52.524;11.468;2023-04-03T01:57:15;1.33;;;0.70;;
32639;SDS011;19049;52.524;11.468;2023-04-03T01:59:41;0.57;;;0.27;;
32639;SDS011;19049;52.524;11.468;2023-04-03T02:02:07;1.37;;;0.60;;
32639;SDS011;19049;52.524;11.468;2023-04-03T02:04:33;2.00;;;0.60;;
32639;SDS011;19049;52.524;11.468;2023-04-03T02:06:59;1.70;;;0.40;;
32639;SDS011;19049;52.524;11.468;2023-04-03T02:09:25;1.27;;;0.70;;
32639;SDS011;19049;52.524;11.468;2023-04-03T02:11:51;1.70;;;0.50;;
32639;SDS011;19049;52.524;11.468;2023-04-03T02:14:17;2.87;;;0.70;;
32639;SDS011;19049;52.524;11.468;2023-04-03T02:16:43;1.00;;;0.60;;
32639;SDS011;19049;52.524;11.468;2023-04-03T02:19:09;2.17;;;0.60;;
32639;SDS011;19049;52.524;11.468;2023-04-03T02:21:35;1.97;;;0.43;;
32639;SDS011;19049;52.524;11.468;2023-04-03T02:24:01;0.60;;;0.40;;
32639;SDS011;19049;52.524;11.468;2023-04-03T02:26:27;1.10;;;0.40;;
32639;SDS011;19049;52.524;11.468;2023-04-03T02:28:53;1.83;;;0.50;;
32639;SDS011;19049;52.524;11.468;2023-04-03T02:31:19;0.83;;;0.63;;
32639;SDS011;19049;52.524;11.468;2023-04-03T02:33:45;1.87;;;0.53;;
32639;SDS011;19049;52.524;11.468;2023-04-03T02:36:11;0.73;;;0.40;;
32639;SDS011;19049;52.524;11.468;2023-04-03T02:38:36;1.63;;;0.50;;
32639;SDS011;19049;52.524;11.468;2023-04-03T02:41:03;2.73;;;0.40;;
32639;SDS011;19049;52.524;11.468;2023-04-03T02:43:31;0.77;;;0.37;;
32639;SDS011;19049;52.524;11.468;2023-04-03T02:45:57;0.83;;;0.40;;
32639;SDS011;19049;52.524;11.468;2023-04-03T02:48:23;1.27;;;0.50;;
32639;SDS011;19049;52.524;11.468;2023-04-03T02:50:49;1.30;;;0.40;;
32639;SDS011;19049;52.524;11.468;2023-04-03T02:53:15;1.00;;;0.60;;
32639;SDS011;19049;52.524;11.468;2023-04-03T02:55:41;2.53;;;0.50;;
32639;SDS011;19049;52.524;11.468;2023-04-03T02:58:07;1.27;;;0.40;;
32639;SDS011;19049;52.524;11.468;2023-04-03T03:00:33;1.23;;;0.43;;
32639;SDS011;19049;52.524;11.468;2023-04-03T03:02:58;0.83;;;0.30;;
32639;SDS011;19049;52.524;11.468;2023-04-03T03:05:25;1.03;;;0.60;;
32639;SDS011;19049;52.524;11.468;2023-04-03T03:07:51;0.77;;;0.53;;
32639;SDS011;19049;52.524;11.468;2023-04-03T03:10:17;0.73;;;0.50;;
32639;SDS011;19049;52.524;11.468;2023-04-03T03:12:43;0.50;;;0.30;;
32639;SDS011;19049;52.524;11.468;2023-04-03T03:15:09;1.50;;;0.40;;
32639;SDS011;19049;52.524;11.468;2023-04-03T03:17:35;0.67;;;0.40;;
32639;SDS011;19049;52.524;11.468;2023-04-03T03:20:01;1.97;;;0.97;;
32639;SDS011;19049;52.524;11.468;2023-04-03T03:22:27;1.40;;;0.60;;
32639;SDS011;19049;52.524;11.468;2023-04-03T03:24:53;2.10;;;0.40;;
32639;SDS011;19049;52.524;11.468;2023-04-03T03:27:19;1.03;;;0.60;;
32639;SDS011;19049;52.524;11.468;2023-04-03T03:29:45;1.70;;;0.60;;
32639;SDS011;19049;52.524;11.468;2023-04-03T03:32:11;1.90;;;0.40;;
32639;SDS011;19049;52.524;11.468;2023-04-03T03:34:37;1.03;;;0.60;;
32639;SDS011;19049;52.524;11.468;2023-04-03T03:37:03;2.00;;;0.40;;
32639;SDS011;19049;52.524;11.468;2023-04-03T03:39:29;0.77;;;0.43;;
32639;SDS011;19049;52.524;11.468;2023-04-03T03:41:55;0.70;;;0.30;;
32639;SDS011;19049;52.524;11.468;2023-04-03T03:44:21;1.63;;;0.50;;
32639;SDS011;19049;52.524;11.468;2023-04-03T03:46:47;0.57;;;0.40;;
32639;SDS011;19049;52.524;11.468;2023-04-03T03:49:13;3.90;;;0.50;;
32639;SDS011;19049;52.524;11.468;2023-04-03T03:51:39;1.97;;;0.60;;
32639;SDS011;19049;52.524;11.468;2023-04-03T03:54:05;3.83;;;0.90;;
32639;SDS011;19049;52.524;11.468;2023-04-03T03:56:32;1.20;;;0.50;;
32639;SDS011;19049;52.524;11.468;2023-04-03T03:58:58;0.70;;;0.30;;
32639;SDS011;19049;52.524;11.468;2023-04-03T04:01:24;1.48;;;0.57;;
32639;SDS011;19049;52.524;11.468;2023-04-03T04:03:50;0.83;;;0.20;;
32639;SDS011;19049;52.524;11.468;2023-04-03T04:06:16;1.42;;;0.50;;
32639;SDS011;19049;52.524;11.468;2023-04-03T04:08:42;1.27;;;0.60;;
32639;SDS011;19049;52.524;11.468;2023-04-03T04:11:08;2.30;;;0.57;;
32639;SDS011;19049;52.524;11.468;2023-04-03T04:13:34;2.43;;;0.50;;
32639;SDS011;19049;52.524;11.468;2023-04-03T04:16:00;1.70;;;0.47;;
32639;SDS011;19049;52.524;11.468;2023-04-03T04:18:26;2.03;;;0.50;;
32639;SDS011;19049;52.524;11.468;2023-04-03T04:20:52;1.13;;;0.43;;
32639;SDS011;19049;52.524;11.468;2023-04-03T04:23:18;1.10;;;0.40;;
32639;SDS011;19049;52.524;11.468;2023-04-03T04:25:47;1.53;;;0.40;;
32639;SDS011;19049;52.524;11.468;2023-04-03T04:28:14;0.63;;;0.40;;
32639;SDS011;19049;52.524;11.468;2023-04-03T04:30:40;0.60;;;0.50;;
32639;SDS011;19049;52.524;11.468;2023-04-03T04:33:05;1.50;;;0.60;;
32639;SDS011;19049;52.524;11.468;2023-04-03T04:35:32;2.33;;;0.80;;
32639;SDS011;19049;52.524;11.468;2023-04-03T04:37:58;2.17;;;0.60;;
32639;SDS011;19049;52.524;11.468;2023-04-03T04:40:24;2.63;;;0.60;;
32639;SDS011;19049;52.524;11.468;2023-04-03T04:42:50;3.27;;;0.50;;
32639;SDS011;19049;52.524;11.468;2023-04-03T04:45:16;0.73;;;0.30;;
32639;SDS011;19049;52.524;11.468;2023-04-03T04:47:42;1.07;;;0.30;;
32639;SDS011;19049;52.524;11.468;2023-04-03T04:50:08;2.43;;;0.60;;
32639;SDS011;19049;52.524;11.468;2023-04-03T04:52:34;2.50;;;0.30;;
32639;SDS011;19049;52.524;11.468;2023-04-03T04:55:00;0.77;;;0.30;;
32639;SDS011;19049;52.524;11.468;2023-04-03T04:57:26;1.00;;;0.47;;
32639;SDS011;19049;52.524;11.468;2023-04-03T04:59:52;0.67;;;0.50;;
32639;SDS011;19049;52.524;11.468;2023-04-03T05:02:18;0.53;;;0.50;;
32639;SDS011;19049;52.524;11.468;2023-04-03T05:04:43;0.93;;;0.40;;
32639;SDS011;19049;52.524;11.468;2023-04-03T05:07:09;3.00;;;0.70;;
32639;SDS011;19049;52.524;11.468;2023-04-03T05:09:35;2.20;;;0.60;;
32639;SDS011;19049;52.524;11.468;2023-04-03T05:12:01;0.83;;;0.40;;
32639;SDS011;19049;52.524;11.468;2023-04-03T05:14:28;1.60;;;0.50;;
32639;SDS011;19049;52.524;11.468;2023-04-03T05:16:54;1.50;;;0.40;;
32639;SDS011;19049;52.524;11.468;2023-04-03T05:19:21;0.67;;;0.40;;
32639;SDS011;19049;52.524;11.468;2023-04-03T05:21:47;0.93;;;0.50;;
32639;SDS011;19049;52.524;11.468;2023-04-03T05:24:13;2.45;;;0.60;;
32639;SDS011;19049;52.524;11.468;2023-04-03T05:26:39;1.07;;;0.43;;
32639;SDS011;19049;52.524;11.468;2023-04-03T05:29:05;0.63;;;0.40;;
32639;SDS011;19049;52.524;11.468;2023-04-03T05:31:31;1.13;;;0.60;;
32639;SDS011;19049;52.524;11.468;2023-04-03T05:33:57;0.80;;;0.40;;
32639;SDS011;19049;52.524;11.468;2023-04-03T05:36:23;0.80;;;0.50;;
32639;SDS011;19049;52.524;11.468;2023-04-03T05:38:50;0.80;;;0.30;;
32639;SDS011;19049;52.524;11.468;2023-04-03T05:41:17;0.67;;;0.53;;
32639;SDS011;19049;52.524;11.468;2023-04-03T05:43:43;1.77;;;0.40;;
32639;SDS011;19049;52.524;11.468;2023-04-03T05:46:10;1.50;;;0.60;;
32639;SDS011;19049;52.524;11.468;2023-04-03T05:48:37;1.90;;;0.43;;
32639;SDS011;19049;52.524;11.468;2023-04-03T05:51:03;0.83;;;0.50;;
32639;SDS011;19049;52.524;11.468;2023-04-03T05:53:30;1.03;;;0.47;;
32639;SDS011;19049;52.524;11.468;2023-04-03T05:55:58;1.80;;;0.60;;
32639;SDS011;19049;52.524;11.468;2023-04-03T05:58:24;0.90;;;0.40;;
32639;SDS011;19049;52.524;11.468;2023-04-03T06:00:49;2.93;;;0.53;;
32639;SDS011;19049;52.524;11.468;2023-04-03T06:03:15;1.70;;;0.67;;
32639;SDS011;19049;52.524;11.468;2023-04-03T06:05:41;0.50;;;0.30;;
32639;SDS011;19049;52.524;11.468;2023-04-03T06:08:07;1.43;;;0.63;;
32639;SDS011;19049;52.524;11.468;2023-04-03T06:10:34;0.40;;;0.40;;
32639;SDS011;19049;52.524;11.468;2023-04-03T06:13:00;1.53;;;0.87;;
32639;SDS011;19049;52.524;11.468;2023-04-03T06:15:27;1.23;;;0.50;;
32639;SDS011;19049;52.524;11.468;2023-04-03T06:17:53;1.67;;;0.73;;
32639;SDS011;19049;52.524;11.468;2023-04-03T06:20:20;3.77;;;0.63;;
32639;SDS011;19049;52.524;11.468;2023-04-03T06:22:47;0.97;;;0.63;;
32639;SDS011;19049;52.524;11.468;2023-04-03T06:25:13;1.70;;;0.70;;
32639;SDS011;19049;52.524;11.468;2023-04-03T06:27:39;1.30;;;0.50;;
32639;SDS011;19049;52.524;11.468;2023-04-03T06:30:05;3.20;;;0.70;;
32639;SDS011;19049;52.524;11.468;2023-04-03T06:32:35;1.70;;;0.70;;
32639;SDS011;19049;52.524;11.468;2023-04-03T06:35:01;2.50;;;0.60;;
32639;SDS011;19049;52.524;11.468;2023-04-03T06:37:28;3.60;;;0.90;;
32639;SDS011;19049;52.524;11.468;2023-04-03T06:39:54;1.10;;;0.60;;
32639;SDS011;19049;52.524;11.468;2023-04-03T06:42:23;1.43;;;0.77;;
32639;SDS011;19049;52.524;11.468;2023-04-03T06:44:48;1.77;;;0.97;;
32639;SDS011;19049;52.524;11.468;2023-04-03T06:47:15;2.10;;;0.80;;
32639;SDS011;19049;52.524;11.468;2023-04-03T06:49:42;1.23;;;0.63;;
32639;SDS011;19049;52.524;11.468;2023-04-03T06:52:08;1.83;;;0.80;;
32639;SDS011;19049;52.524;11.468;2023-04-03T06:54:34;2.87;;;1.13;;
32639;SDS011;19049;52.524;11.468;2023-04-03T06:57:00;1.40;;;0.73;;
32639;SDS011;19049;52.524;11.468;2023-04-03T06:59:27;1.03;;;0.67;;
32639;SDS011;19049;52.524;11.468;2023-04-03T07:01:53;2.83;;;0.83;;
32639;SDS011;19049;52.524;11.468;2023-04-03T07:04:19;2.73;;;0.63;;
32639;SDS011;19049;52.524;11.468;2023-04-03T07:06:47;2.03;;;0.90;;
32639;SDS011;19049;52.524;11.468;2023-04-03T07:09:14;2.30;;;0.80;;
32639;SDS011;19049;52.524;11.468;2023-04-03T07:11:40;2.47;;;1.00;;
32639;SDS011;19049;52.524;11.468;2023-04-03T07:14:06;4.23;;;1.20;;
32639;SDS011;19049;52.524;11.468;2023-04-03T07:16:33;3.57;;;0.90;;
32639;SDS011;19049;52.524;11.468;2023-04-03T07:18:59;5.27;;;1.00;;
32639;SDS011;19049;52.524;11.468;2023-04-03T07:21:26;2.43;;;1.00;;
32639;SDS011;19049;52.524;11.468;2023-04-03T07:23:52;1.77;;;0.80;;
32639;SDS011;19049;52.524;11.468;2023-04-03T07:26:18;2.70;;;0.93;;
32639;SDS011;19049;52.524;11.468;2023-04-03T07:28:46;1.07;;;0.90;;
32639;SDS011;19049;52.524;11.468;2023-04-03T07:31:13;1.43;;;0.77;;
32639;SDS011;19049;52.524;11.468;2023-04-03T07:33:40;5.00;;;1.50;;
32639;SDS011;19049;52.524;11.468;2023-04-03T07:36:07;1.97;;;0.77;;
32639;SDS011;19049;52.524;11.468;2023-04-03T07:38:34;2.83;;;1.07;;
32639;SDS011;19049;52.524;11.468;2023-04-03T07:41:01;3.17;;;1.00;;
32639;SDS011;19049;52.524;11.468;2023-04-03T07:43:27;1.77;;;0.90;;
32639;SDS011;19049;52.524;11.468;2023-04-03T07:45:53;1.73;;;1.00;;
32639;SDS011;19049;52.524;11.468;2023-04-03T07:48:23;3.37;;;1.00;;
32639;SDS011;19049;52.524;11.468;2023-04-03T07:50:52;2.23;;;1.13;;
32639;SDS011;19049;52.524;11.468;2023-04-03T07:53:18;4.90;;;1.30;;
32639;SDS011;19049;52.524;11.468;2023-04-03T07:55:48;4.10;;;1.10;;
32639;SDS011;19049;52.524;11.468;2023-04-03T07:58:17;2.47;;;1.13;;
32639;SDS011;19049;52.524;11.468;2023-04-03T08:00:43;3.30;;;1.20;;
32639;SDS011;19049;52.524;11.468;2023-04-03T08:03:10;2.23;;;0.90;;
32639;SDS011;19049;52.524;11.468;2023-04-03T08:05:36;2.37;;;0.97;;
32639;SDS011;19049;52.524;11.468;2023-04-03T08:08:03;5.03;;;1.20;;
32639;SDS011;19049;52.524;11.468;2023-04-03T08:10:30;2.67;;;0.83;;
32639;SDS011;19049;52.524;11.468;2023-04-03T08:12:56;3.20;;;1.20;;
32639;SDS011;19049;52.524;11.468;2023-04-03T08:15:21;4.30;;;1.10;;
32639;SDS011;19049;52.524;11.468;2023-04-03T08:17:47;2.77;;;1.00;;
32639;SDS011;19049;52.524;11.468;2023-04-03T08:20:14;3.33;;;1.07;;
32639;SDS011;19049;52.524;11.468;2023-04-03T08:22:40;2.83;;;1.20;;
32639;SDS011;19049;52.524;11.468;2023-04-03T08:25:06;2.00;;;0.70;;
32639;SDS011;19049;52.524;11.468;2023-04-03T08:27:32;2.87;;;0.80;;
32639;SDS011;19049;52.524;11.468;2023-04-03T08:29:58;5.23;;;1.00;;
32639;SDS011;19049;52.524;11.468;2023-04-03T08:32:24;2.83;;;1.03;;
32639;SDS011;19049;52.524;11.468;2023-04-03T08:34:51;2.80;;;0.80;;
32639;SDS011;19049;52.524;11.468;2023-04-03T08:37:16;2.03;;;1.10;;
32639;SDS011;19049;52.524;11.468;2023-04-03T08:39:44;3.70;;;0.97;;
32639;SDS011;19049;52.524;11.468;2023-04-03T08:45:05;4.50;;;1.30;;
32639;SDS011;19049;52.524;11.468;2023-04-03T08:47:42;2.37;;;1.13;;
32639;SDS011;19049;52.524;11.468;2023-04-03T08:50:29;4.10;;;1.07;;
32639;SDS011;19049;52.524;11.468;2023-04-03T08:53:01;3.70;;;1.30;;
32639;SDS011;19049;52.524;11.468;2023-04-03T08:55:34;3.13;;;1.10;;
32639;SDS011;19049;52.524;11.468;2023-04-03T08:58:18;3.90;;;0.97;;
32639;SDS011;19049;52.524;11.468;2023-04-03T09:03:14;2.23;;;1.00;;
32639;SDS011;19049;52.524;11.468;2023-04-03T09:11:12;3.10;;;1.10;;
32639;SDS011;19049;52.524;11.468;2023-04-03T09:14:13;3.07;;;0.97;;
32639;SDS011;19049;52.524;11.468;2023-04-03T09:20:01;1.83;;;0.87;;
32639;SDS011;19049;52.524;11.468;2023-04-03T09:22:34;3.40;;;1.23;;
32639;SDS011;19049;52.524;11.468;2023-04-03T09:27:50;2.83;;;1.20;;
32639;SDS011;19049;52.524;11.468;2023-04-03T09:30:18;2.77;;;1.33;;
32639;SDS011;19049;52.524;11.468;2023-04-03T09:32:49;3.93;;;1.27;;
32639;SDS011;19049;52.524;11.468;2023-04-03T09:35:19;4.07;;;1.10;;
32639;SDS011;19049;52.524;11.468;2023-04-03T09:40:50;1.83;;;0.90;;
32639;SDS011;19049;52.524;11.468;2023-04-03T09:43:32;1.43;;;0.70;;
32639;SDS011;19049;52.524;11.468;2023-04-03T09:46:44;1.73;;;0.90;;
32639;SDS011;19049;52.524;11.468;2023-04-03T09:49:00;0.77;;;0.60;;
32639;SDS011;19049;52.524;11.468;2023-04-03T09:51:28;1.50;;;1.00;;
32639;SDS011;19049;52.524;11.468;2023-04-03T09:53:56;2.53;;;1.00;;
32639;SDS011;19049;52.524;11.468;2023-04-03T09:56:24;0.60;;;0.50;;
32639;SDS011;19049;52.524;11.468;2023-04-03T10:01:31;1.43;;;0.80;;
32639;SDS011;19049;52.524;11.468;2023-04-03T10:04:12;0.83;;;0.60;;
32639;SDS011;19049;52.524;11.468;2023-04-03T10:06:47;2.77;;;1.00;;
32639;SDS011;19049;52.524;11.468;2023-04-03T10:09:20;2.67;;;0.97;;
32639;SDS011;19049;52.524;11.468;2023-04-03T10:11:58;3.47;;;1.03;;
32639;SDS011;19049;52.524;11.468;2023-04-03T10:14:32;4.57;;;1.40;;
32639;SDS011;19049;52.524;11.468;2023-04-03T10:19:47;1.93;;;0.80;;
32639;SDS011;19049;52.524;11.468;2023-04-03T10:22:28;3.13;;;1.07;;
32639;SDS011;19049;52.524;11.468;2023-04-03T10:25:33;1.83;;;0.77;;
32639;SDS011;19049;52.524;11.468;2023-04-03T10:28:21;2.60;;;0.90;;
32639;SDS011;19049;52.524;11.468;2023-04-03T10:44:04;1.13;;;0.57;;
32639;SDS011;19049;52.524;11.468;2023-04-03T10:47:01;3.50;;;1.03;;
32639;SDS011;19049;52.524;11.468;2023-04-03T10:57:50;1.00;;;0.50;;
32639;SDS011;19049;52.524;11.468;2023-04-03T11:00:19;0.63;;;0.50;;
32639;SDS011;19049;52.524;11.468;2023-04-03T11:02:51;0.90;;;0.70;;
32639;SDS011;19049;52.524;11.468;2023-04-03T11:05:26;1.47;;;0.80;;
32639;SDS011;19049;52.524;11.468;2023-04-03T11:08:02;1.67;;;0.80;;
32639;SDS011;19049;52.524;11.468;2023-04-03T11:10:42;1.90;;;0.70;;
32639;SDS011;19049;52.524;11.468;2023-04-03T11:13:12;2.60;;;0.70;;
32639;SDS011;19049;52.524;11.468;2023-04-03T11:15:46;3.57;;;0.60;;
32639;SDS011;19049;52.524;11.468;2023-04-03T11:18:17;1.20;;;0.50;;
32639;SDS011;19049;52.524;11.468;2023-04-03T11:20:53;1.93;;;0.80;;
32639;SDS011;19049;52.524;11.468;2023-04-03T11:23:34;2.00;;;0.70;;
32639;SDS011;19049;52.524;11.468;2023-04-03T11:26:07;3.43;;;0.80;;
32639;SDS011;19049;52.524;11.468;2023-04-03T11:28:37;1.80;;;0.60;;
32639;SDS011;19049;52.524;11.468;2023-04-03T11:38:43;3.00;;;0.77;;
32639;SDS011;19049;52.524;11.468;2023-04-03T11:41:10;4.00;;;0.70;;
32639;SDS011;19049;52.524;11.468;2023-04-03T11:43:57;2.73;;;1.10;;
32639;SDS011;19049;52.524;11.468;2023-04-03T11:55:35;1.70;;;0.70;;
32639;SDS011;19049;52.524;11.468;2023-04-03T12:13:39;2.73;;;0.70;;
32639;SDS011;19049;52.524;11.468;2023-04-03T12:16:22;1.67;;;0.70;;
32639;SDS011;19049;52.524;11.468;2023-04-03T12:21:19;3.43;;;0.97;;
32639;SDS011;19049;52.524;11.468;2023-04-03T12:26:43;1.63;;;0.67;;
32639;SDS011;19049;52.524;11.468;2023-04-03T12:42:45;1.60;;;1.07;;
32639;SDS011;19049;52.524;11.468;2023-04-03T12:45:25;2.93;;;0.90;;
32639;SDS011;19049;52.524;11.468;2023-04-03T12:47:52;2.30;;;0.73;;
32639;SDS011;19049;52.524;11.468;2023-04-03T12:52:51;3.73;;;1.03;;
32639;SDS011;19049;52.524;11.468;2023-04-03T12:55:22;2.43;;;1.07;;
32639;SDS011;19049;52.524;11.468;2023-04-03T12:57:48;3.90;;;0.90;;
32639;SDS011;19049;52.524;11.468;2023-04-03T13:03:01;3.97;;;0.93;;
32639;SDS011;19049;52.524;11.468;2023-04-03T13:05:28;2.93;;;0.77;;
32639;SDS011;19049;52.524;11.468;2023-04-03T13:08:00;1.80;;;0.80;;
32639;SDS011;19049;52.524;11.468;2023-04-03T13:10:32;2.00;;;0.80;;
32639;SDS011;19049;52.524;11.468;2023-04-03T13:13:19;4.43;;;1.13;;
32639;SDS011;19049;52.524;11.468;2023-04-03T13:15:47;1.47;;;0.73;;
32639;SDS011;19049;52.524;11.468;2023-04-03T13:18:25;3.83;;;0.80;;
32639;SDS011;19049;52.524;11.468;2023-04-03T13:20:59;2.00;;;0.80;;
32639;SDS011;19049;52.524;11.468;2023-04-03T13:23:27;3.50;;;0.80;;
32639;SDS011;19049;52.524;11.468;2023-04-03T13:25:54;3.20;;;1.00;;
32639;SDS011;19049;52.524;11.468;2023-04-03T13:28:23;2.10;;;0.77;;
32639;SDS011;19049;52.524;11.468;2023-04-03T13:33:54;3.30;;;1.10;;
32639;SDS011;19049;52.524;11.468;2023-04-03T13:36:21;1.93;;;1.00;;
32639;SDS011;19049;52.524;11.468;2023-04-03T13:38:58;1.87;;;1.07;;
32639;SDS011;19049;52.524;11.468;2023-04-03T13:41:36;3.83;;;1.50;;
32639;SDS011;19049;52.524;11.468;2023-04-03T13:46:42;4.10;;;1.10;;
32639;SDS011;19049;52.524;11.468;2023-04-03T13:49:22;2.13;;;0.73;;
32639;SDS011;19049;52.524;11.468;2023-04-03T13:52:01;3.80;;;1.10;;
32639;SDS011;19049;52.524;11.468;2023-04-03T13:54:45;2.63;;;0.80;;
32639;SDS011;19049;52.524;11.468;2023-04-03T13:57:13;1.70;;;0.50;;
32639;SDS011;19049;52.524;11.468;2023-04-03T13:59:41;2.07;;;0.87;;
32639;SDS011;19049;52.524;11.468;2023-04-03T14:07:05;2.20;;;0.70;;
32639;SDS011;19049;52.524;11.468;2023-04-03T14:09:31;4.87;;;1.60;;
32639;SDS011;19049;52.524;11.468;2023-04-03T14:12:05;2.10;;;0.80;;
32639;SDS011;19049;52.524;11.468;2023-04-03T14:14:34;2.53;;;0.70;;
32639;SDS011;19049;52.524;11.468;2023-04-03T14:17:03;3.13;;;0.80;;
32639;SDS011;19049;52.524;11.468;2023-04-03T14:19:37;3.60;;;1.20;;
32639;SDS011;19049;52.524;11.468;2023-04-03T14:22:10;1.03;;;0.67;;
32639;SDS011;19049;52.524;11.468;2023-04-03T14:24:43;1.93;;;0.60;;
32639;SDS011;19049;52.524;11.468;2023-04-03T14:29:47;2.50;;;1.10;;
32639;SDS011;19049;52.524;11.468;2023-04-03T14:32:14;1.97;;;1.10;;
32639;SDS011;19049;52.524;11.468;2023-04-03T14:34:42;2.00;;;0.97;;
32639;SDS011;19049;52.524;11.468;2023-04-03T14:37:10;2.03;;;0.90;;
32639;SDS011;19049;52.524;11.468;2023-04-03T14:39:41;2.37;;;0.97;;
32639;SDS011;19049;52.524;11.468;2023-04-03T14:42:15;1.77;;;0.77;;
32639;SDS011;19049;52.524;11.468;2023-04-03T14:44:44;1.23;;;0.83;;
32639;SDS011;19049;52.524;11.468;2023-04-03T14:47:11;2.23;;;1.43;;
32639;SDS011;19049;52.524;11.468;2023-04-03T14:49:38;2.33;;;1.03;;
32639;SDS011;19049;52.524;11.468;2023-04-03T14:52:04;3.03;;;0.80;;
32639;SDS011;19049;52.524;11.468;2023-04-03T14:54:30;1.30;;;0.90;;
32639;SDS011;19049;52.524;11.468;2023-04-03T14:56:57;0.77;;;0.67;;
32639;SDS011;19049;52.524;11.468;2023-04-03T14:59:26;1.20;;;0.70;;
32639;SDS011;19049;52.524;11.468;2023-04-03T15:01:52;2.00;;;0.60;;
32639;SDS011;19049;52.524;11.468;2023-04-03T15:04:19;1.10;;;0.70;;
32639;SDS011;19049;52.524;11.468;2023-04-03T15:06:45;1.17;;;0.70;;
32639;SDS011;19049;52.524;11.468;2023-04-03T15:09:18;1.33;;;0.50;;
32639;SDS011;19049;52.524;11.468;2023-04-03T15:11:44;2.10;;;0.80;;
32639;SDS011;19049;52.524;11.468;2023-04-03T15:14:10;3.33;;;0.70;;
32639;SDS011;19049;52.524;11.468;2023-04-03T15:16:36;2.20;;;0.70;;
32639;SDS011;19049;52.524;11.468;2023-04-03T15:19:02;2.60;;;0.77;;
32639;SDS011;19049;52.524;11.468;2023-04-03T15:21:28;3.53;;;0.90;;
32639;SDS011;19049;52.524;11.468;2023-04-03T15:23:54;1.53;;;1.07;;
32639;SDS011;19049;52.524;11.468;2023-04-03T15:26:20;2.10;;;0.80;;
32639;SDS011;19049;52.524;11.468;2023-04-03T15:28:46;3.53;;;0.80;;
32639;SDS011;19049;52.524;11.468;2023-04-03T15:31:12;0.90;;;0.60;;
32639;SDS011;19049;52.524;11.468;2023-04-03T15:33:37;1.77;;;0.60;;
32639;SDS011;19049;52.524;11.468;2023-04-03T15:36:04;1.80;;;0.50;;
32639;SDS011;19049;52.524;11.468;2023-04-03T15:38:30;1.53;;;0.70;;
32639;SDS011;19049;52.524;11.468;2023-04-03T15:40:56;1.50;;;0.60;;
32639;SDS011;19049;52.524;11.468;2023-04-03T15:43:24;1.40;;;0.60;;
32639;SDS011;19049;52.524;11.468;2023-04-03T15:45:50;1.43;;;0.77;;
32639;SDS011;19049;52.524;11.468;2023-04-03T15:48:17;1.30;;;0.63;;
32639;SDS011;19049;52.524;11.468;2023-04-03T15:50:43;1.93;;;0.90;;
32639;SDS011;19049;52.524;11.468;2023-04-03T15:53:09;1.03;;;0.57;;
32639;SDS011;19049;52.524;11.468;2023-04-03T15:55:36;1.23;;;0.40;;
32639;SDS011;19049;52.524;11.468;2023-04-03T15:58:02;1.60;;;0.77;;
32639;SDS011;19049;52.524;11.468;2023-04-03T16:00:28;1.40;;;0.60;;
32639;SDS011;19049;52.524;11.468;2023-04-03T16:02:55;0.90;;;0.60;;
32639;SDS011;19049;52.524;11.468;2023-04-03T16:05:24;1.23;;;0.67;;
32639;SDS011;19049;52.524;11.468;2023-04-03T16:07:50;1.03;;;0.70;;
32639;SDS011;19049;52.524;11.468;2023-04-03T16:10:17;1.97;;;0.67;;
32639;SDS011;19049;52.524;11.468;2023-04-03T16:12:43;1.50;;;0.67;;
32639;SDS011;19049;52.524;11.468;2023-04-03T16:15:09;2.63;;;0.70;;
32639;SDS011;19049;52.524;11.468;2023-04-03T16:17:35;1.17;;;0.47;;
32639;SDS011;19049;52.524;11.468;2023-04-03T16:20:03;1.40;;;0.83;;
32639;SDS011;19049;52.524;11.468;2023-04-03T16:22:30;1.83;;;0.83;;
32639;SDS011;19049;52.524;11.468;2023-04-03T16:24:56;1.00;;;0.60;;
32639;SDS011;19049;52.524;11.468;2023-04-03T16:27:22;5.67;;;2.53;;
32639;SDS011;19049;52.524;11.468;2023-04-03T16:29:52;2.23;;;1.10;;
32639;SDS011;19049;52.524;11.468;2023-04-03T16:32:18;3.47;;;1.47;;
32639;SDS011;19049;52.524;11.468;2023-04-03T16:34:44;4.03;;;1.77;;
32639;SDS011;19049;52.524;11.468;2023-04-03T16:37:10;8.30;;;3.93;;
32639;SDS011;19049;52.524;11.468;2023-04-03T16:39:36;3.67;;;1.97;;
32639;SDS011;19049;52.524;11.468;2023-04-03T16:42:02;4.47;;;3.30;;
32639;SDS011;19049;52.524;11.468;2023-04-03T16:44:27;3.53;;;1.87;;